sensor_id;sensor_type;location;lat;lon;timestamp;P1;durP1;ratioP1;P2;durP2;ratioP2
489;SDS011;231;48.120;11.576;2023-06-22T02:16:44;8.63;;;6.70;;
489;SDS011;231;48.120;11.576;2023-06-22T02:19:12;6.73;;;6.33;;
489;SDS011;231;48.120;11.576;2023-06-22T02:21:46;8.13;;;7.30;;
489;SDS011;231;48.120;11.576;2023-06-22T02:24:14;10.17;;;7.40;;
489;SDS011;231;48.120;11.576;2023-06-22T02:26:48;8.23;;;6.60;;
489;SDS011;231;48.120;11.576;2023-06-22T02:29:15;8.63;;;8.13;;
489;SDS011;231;48.120;11.576;2023-06-22T02:31:47;10.07;;;7.27;;
489;SDS011;231;48.120;11.576;2023-06-22T02:34:14;10.40;;;7.70;;
489;SDS011;231;48.120;11.576;2023-06-22T02:36:43;9.13;;;7.53;;
489;SDS011;231;48.120;11.576;2023-06-22T02:39:17;9.43;;;6.83;;
489;SDS011;231;48.120;11.576;2023-06-22T02:41:59;12.90;;;6.10;;
489;SDS011;231;48.120;11.576;2023-06-22T02:44:58;8.00;;;7.60;;
489;SDS011;231;48.120;11.576;2023-06-22T02:50:14;9.70;;;7.93;;
489;SDS011;231;48.120;11.576;2023-06-22T02:53:00;8.70;;;7.60;;
489;SDS011;231;48.120;11.576;2023-06-22T02:55:27;8.33;;;7.50;;
489;SDS011;231;48.120;11.576;2023-06-22T02:57:54;10.00;;;7.53;;
489;SDS011;231;48.120;11.576;2023-06-22T03:00:22;7.60;;;7.10;;
489;SDS011;231;48.120;11.576;2023-06-22T03:02:56;10.63;;;7.40;;
489;SDS011;231;48.120;11.576;2023-06-22T03:05:23;11.50;;;7.10;;
489;SDS011;231;48.120;11.576;2023-06-22T03:07:51;10.43;;;7.73;;
489;SDS011;231;48.120;11.576;2023-06-22T03:10:18;10.60;;;8.10;;
489;SDS011;231;48.120;11.576;2023-06-22T03:12:44;7.37;;;6.70;;
489;SDS011;231;48.120;11.576;2023-06-22T03:15:12;7.77;;;7.27;;
489;SDS011;231;48.120;11.576;2023-06-22T03:17:39;15.47;;;7.67;;
489;SDS011;231;48.120;11.576;2023-06-22T03:20:09;8.97;;;8.30;;
489;SDS011;231;48.120;11.576;2023-06-22T03:22:37;7.37;;;6.97;;
489;SDS011;231;48.120;11.576;2023-06-22T03:25:05;11.70;;;7.10;;
489;SDS011;231;48.120;11.576;2023-06-22T03:27:38;8.03;;;7.63;;
489;SDS011;231;48.120;11.576;2023-06-22T03:30:06;9.53;;;8.00;;
489;SDS011;231;48.120;11.576;2023-06-22T03:32:35;10.70;;;7.50;;
489;SDS011;231;48.120;11.576;2023-06-22T03:35:02;11.10;;;8.30;;
489;SDS011;231;48.120;11.576;2023-06-22T03:37:30;8.47;;;8.00;;
489;SDS011;231;48.120;11.576;2023-06-22T03:39:57;10.10;;;7.50;;
489;SDS011;231;48.120;11.576;2023-06-22T03:42:24;8.43;;;7.97;;
489;SDS011;231;48.120;11.576;2023-06-22T03:44:52;9.27;;;7.33;;
489;SDS011;231;48.120;11.576;2023-06-22T03:47:19;9.60;;;9.00;;
489;SDS011;231;48.120;11.576;2023-06-22T03:49:46;9.63;;;9.13;;
489;SDS011;231;48.120;11.576;2023-06-22T03:52:13;8.60;;;8.10;;
489;SDS011;231;48.120;11.576;2023-06-22T03:54:41;9.27;;;8.77;;
489;SDS011;231;48.120;11.576;2023-06-22T03:57:08;11.37;;;7.43;;
489;SDS011;231;48.120;11.576;2023-06-22T03:59:36;20.37;;;8.93;;
489;SDS011;231;48.120;11.576;2023-06-22T04:02:03;15.53;;;8.20;;
489;SDS011;231;48.120;11.576;2023-06-22T04:04:30;7.93;;;7.53;;
489;SDS011;231;48.120;11.576;2023-06-22T04:06:58;13.30;;;9.13;;
489;SDS011;231;48.120;11.576;2023-06-22T04:09:25;9.07;;;8.57;;
489;SDS011;231;48.120;11.576;2023-06-22T04:11:54;14.93;;;9.30;;
489;SDS011;231;48.120;11.576;2023-06-22T04:14:22;11.47;;;9.47;;
489;SDS011;231;48.120;11.576;2023-06-22T04:16:49;12.50;;;8.87;;
489;SDS011;231;48.120;11.576;2023-06-22T04:19:16;10.93;;;8.67;;
489;SDS011;231;48.120;11.576;2023-06-22T04:21:43;11.70;;;8.90;;
489;SDS011;231;48.120;11.576;2023-06-22T04:24:10;11.47;;;8.07;;
489;SDS011;231;48.120;11.576;2023-06-22T04:26:37;13.27;;;10.43;;
489;SDS011;231;48.120;11.576;2023-06-22T04:29:08;11.67;;;9.67;;
489;SDS011;231;48.120;11.576;2023-06-22T04:31:34;13.33;;;8.80;;
489;SDS011;231;48.120;11.576;2023-06-22T04:34:02;9.07;;;8.57;;
489;SDS011;231;48.120;11.576;2023-06-22T04:36:33;10.13;;;8.83;;
489;SDS011;231;48.120;11.576;2023-06-22T04:39:03;15.93;;;9.00;;
489;SDS011;231;48.120;11.576;2023-06-22T04:41:31;8.80;;;8.30;;
489;SDS011;231;48.120;11.576;2023-06-22T04:44:08;10.23;;;9.03;;
489;SDS011;231;48.120;11.576;2023-06-22T04:46:35;9.53;;;9.07;;
489;SDS011;231;48.120;11.576;2023-06-22T04:49:03;9.03;;;7.40;;
489;SDS011;231;48.120;11.576;2023-06-22T04:51:39;9.50;;;8.80;;
489;SDS011;231;48.120;11.576;2023-06-22T04:54:07;12.33;;;9.40;;
489;SDS011;231;48.120;11.576;2023-06-22T04:56:35;14.07;;;10.23;;
489;SDS011;231;48.120;11.576;2023-06-22T04:59:05;8.63;;;8.07;;
489;SDS011;231;48.120;11.576;2023-06-22T05:01:38;9.87;;;9.00;;
489;SDS011;231;48.120;11.576;2023-06-22T05:04:04;11.97;;;9.10;;
489;SDS011;231;48.120;11.576;2023-06-22T05:06:32;9.30;;;8.00;;
489;SDS011;231;48.120;11.576;2023-06-22T05:08:58;16.50;;;9.40;;
489;SDS011;231;48.120;11.576;2023-06-22T05:11:31;10.73;;;9.27;;
489;SDS011;231;48.120;11.576;2023-06-22T05:14:08;8.70;;;8.23;;
489;SDS011;231;48.120;11.576;2023-06-22T05:16:40;9.10;;;8.57;;
489;SDS011;231;48.120;11.576;2023-06-22T05:19:14;11.63;;;9.77;;
489;SDS011;231;48.120;11.576;2023-06-22T05:21:42;11.30;;;8.63;;
489;SDS011;231;48.120;11.576;2023-06-22T05:24:17;12.17;;;9.17;;
489;SDS011;231;48.120;11.576;2023-06-22T05:26:47;11.67;;;9.43;;
489;SDS011;231;48.120;11.576;2023-06-22T05:43:02;12.53;;;8.97;;
489;SDS011;231;48.120;11.576;2023-06-22T05:45:59;14.90;;;9.07;;
489;SDS011;231;48.120;11.576;2023-06-22T05:48:56;12.93;;;8.80;;
489;SDS011;231;48.120;11.576;2023-06-22T05:52:00;11.10;;;9.00;;
489;SDS011;231;48.120;11.576;2023-06-22T06:01:49;13.83;;;9.77;;
489;SDS011;231;48.120;11.576;2023-06-22T06:05:22;10.90;;;7.80;;
489;SDS011;231;48.120;11.576;2023-06-22T06:08:18;10.13;;;9.63;;
489;SDS011;231;48.120;11.576;2023-06-22T06:15:02;10.67;;;8.53;;
489;SDS011;231;48.120;11.576;2023-06-22T06:17:30;12.60;;;8.90;;
489;SDS011;231;48.120;11.576;2023-06-22T06:19:58;9.77;;;9.07;;
489;SDS011;231;48.120;11.576;2023-06-22T06:22:25;11.13;;;9.90;;
489;SDS011;231;48.120;11.576;2023-06-22T06:24:52;9.33;;;8.57;;
489;SDS011;231;48.120;11.576;2023-06-22T06:27:19;11.90;;;8.67;;
489;SDS011;231;48.120;11.576;2023-06-22T06:29:46;14.00;;;8.73;;
489;SDS011;231;48.120;11.576;2023-06-22T06:32:15;10.63;;;8.03;;
489;SDS011;231;48.120;11.576;2023-06-22T06:34:44;8.70;;;8.13;;
489;SDS011;231;48.120;11.576;2023-06-22T06:37:11;8.40;;;7.93;;
489;SDS011;231;48.120;11.576;2023-06-22T06:39:38;11.50;;;9.03;;
489;SDS011;231;48.120;11.576;2023-06-22T06:42:05;11.00;;;8.33;;
489;SDS011;231;48.120;11.576;2023-06-22T06:44:32;10.00;;;9.33;;
489;SDS011;231;48.120;11.576;2023-06-22T06:47:00;9.73;;;8.23;;
489;SDS011;231;48.120;11.576;2023-06-22T06:49:28;7.30;;;6.90;;
489;SDS011;231;48.120;11.576;2023-06-22T11:50:36;9.23;;;7.70;;
489;SDS011;231;48.120;11.576;2023-06-22T11:58:50;8.33;;;7.67;;
489;SDS011;231;48.120;11.576;2023-06-22T17:45:17;10.27;;;9.73;;
489;SDS011;231;48.120;11.576;2023-06-22T17:47:47;18.77;;;9.87;;
489;SDS011;231;48.120;11.576;2023-06-22T17:50:15;13.53;;;9.03;;
489;SDS011;231;48.120;11.576;2023-06-22T17:52:48;13.93;;;10.00;;
489;SDS011;231;48.120;11.576;2023-06-22T17:55:21;19.33;;;12.53;;
489;SDS011;231;48.120;11.576;2023-06-22T18:43:35;20.20;;;11.10;;
489;SDS011;231;48.120;11.576;2023-06-22T18:50:06;14.93;;;13.10;;
489;SDS011;231;48.120;11.576;2023-06-22T18:56:11;13.07;;;10.53;;
489;SDS011;231;48.120;11.576;2023-06-22T18:58:48;16.17;;;11.00;;
489;SDS011;231;48.120;11.576;2023-06-22T19:01:22;16.47;;;10.00;;
489;SDS011;231;48.120;11.576;2023-06-22T19:03:55;21.07;;;11.87;;
489;SDS011;231;48.120;11.576;2023-06-22T19:09:21;16.40;;;10.37;;
489;SDS011;231;48.120;11.576;2023-06-22T19:11:49;13.87;;;11.60;;
489;SDS011;231;48.120;11.576;2023-06-22T19:14:20;16.30;;;10.70;;
489;SDS011;231;48.120;11.576;2023-06-22T19:16:56;14.67;;;12.10;;
489;SDS011;231;48.120;11.576;2023-06-22T19:19:24;21.50;;;11.80;;
489;SDS011;231;48.120;11.576;2023-06-22T19:21:57;12.50;;;11.00;;
489;SDS011;231;48.120;11.576;2023-06-22T19:24:28;16.40;;;10.73;;
489;SDS011;231;48.120;11.576;2023-06-22T19:26:58;18.77;;;10.20;;
489;SDS011;231;48.120;11.576;2023-06-22T19:29:25;16.97;;;13.03;;
489;SDS011;231;48.120;11.576;2023-06-22T19:31:53;14.70;;;11.97;;
489;SDS011;231;48.120;11.576;2023-06-22T19:34:21;19.57;;;13.10;;
489;SDS011;231;48.120;11.576;2023-06-22T19:36:51;14.77;;;11.47;;
489;SDS011;231;48.120;11.576;2023-06-22T22:29:22;8.73;;;8.23;;
489;SDS011;231;48.120;11.576;2023-06-22T22:31:55;8.27;;;7.87;;
489;SDS011;231;48.120;11.576;2023-06-22T22:34:24;8.03;;;7.63;;
489;SDS011;231;48.120;11.576;2023-06-22T22:36:52;7.90;;;7.20;;
489;SDS011;231;48.120;11.576;2023-06-22T22:39:28;8.90;;;7.07;;
489;SDS011;231;48.120;11.576;2023-06-22T22:41:58;12.90;;;8.27;;
489;SDS011;231;48.120;11.576;2023-06-22T22:44:26;10.10;;;7.63;;
489;SDS011;231;48.120;11.576;2023-06-22T22:46:53;11.90;;;8.60;;
489;SDS011;231;48.120;11.576;2023-06-22T22:49:19;9.97;;;7.30;;
489;SDS011;231;48.120;11.576;2023-06-22T22:51:46;9.27;;;6.90;;
489;SDS011;231;48.120;11.576;2023-06-22T22:54:13;11.13;;;6.87;;
489;SDS011;231;48.120;11.576;2023-06-22T22:56:40;8.40;;;7.20;;
489;SDS011;231;48.120;11.576;2023-06-22T22:59:08;9.27;;;7.80;;
489;SDS011;231;48.120;11.576;2023-06-22T23:01:35;9.87;;;6.03;;
489;SDS011;231;48.120;11.576;2023-06-22T23:04:02;5.57;;;5.27;;
489;SDS011;231;48.120;11.576;2023-06-22T23:06:30;9.40;;;6.47;;
489;SDS011;231;48.120;11.576;2023-06-22T23:08:57;9.87;;;5.97;;
489;SDS011;231;48.120;11.576;2023-06-22T23:11:24;9.40;;;5.57;;
489;SDS011;231;48.120;11.576;2023-06-22T23:13:51;9.33;;;5.53;;
489;SDS011;231;48.120;11.576;2023-06-22T23:16:23;6.50;;;4.77;;
489;SDS011;231;48.120;11.576;2023-06-22T23:18:52;8.43;;;5.33;;
489;SDS011;231;48.120;11.576;2023-06-22T23:21:24;3.67;;;3.47;;
489;SDS011;231;48.120;11.576;2023-06-22T23:23:58;3.87;;;3.60;;
489;SDS011;231;48.120;11.576;2023-06-22T23:26:25;4.07;;;3.87;;
489;SDS011;231;48.120;11.576;2023-06-22T23:28:53;4.33;;;4.03;;
489;SDS011;231;48.120;11.576;2023-06-22T23:31:20;5.10;;;3.70;;
489;SDS011;231;48.120;11.576;2023-06-22T23:33:50;5.60;;;3.40;;
489;SDS011;231;48.120;11.576;2023-06-22T23:36:16;3.57;;;3.37;;
489;SDS011;231;48.120;11.576;2023-06-22T23:38:43;4.67;;;3.57;;
489;SDS011;231;48.120;11.576;2023-06-22T23:41:10;4.23;;;3.20;;
489;SDS011;231;48.120;11.576;2023-06-22T23:43:37;3.00;;;2.47;;
489;SDS011;231;48.120;11.576;2023-06-22T23:46:05;4.20;;;2.93;;
489;SDS011;231;48.120;11.576;2023-06-22T23:48:32;4.53;;;3.30;;
489;SDS011;231;48.120;11.576;2023-06-22T23:51:01;2.70;;;2.37;;
489;SDS011;231;48.120;11.576;2023-06-22T23:53:28;4.23;;;2.70;;
489;SDS011;231;48.120;11.576;2023-06-22T23:55:55;2.90;;;2.70;;
489;SDS011;231;48.120;11.576;2023-06-22T23:58:22;3.20;;;3.00;;
